createdAt,value
2023-04-09T00:03:04.737Z,20.03
2023-04-09T00:08:08.077Z,20.63
2023-04-09T00:13:11.311Z,19.97
2023-04-09T00:18:16.692Z,20.70
2023-04-09T00:23:20.677Z,20.87
2023-04-09T00:28:23.887Z,18.60
2023-04-09T00:33:28.475Z,19.37
2023-04-09T00:38:32.039Z,21.17
2023-04-09T00:43:34.948Z,18.97
2023-04-09T00:48:39.572Z,19.83
2023-04-09T00:53:43.929Z,19.67
2023-04-09T00:58:47.146Z,19.40
2023-04-09T01:03:52.282Z,19.03
2023-04-09T01:09:04.061Z,18.77
2023-04-09T01:14:21.198Z,17.93
2023-04-09T01:19:42.944Z,18.83
2023-04-09T01:24:58.285Z,18.17
2023-04-09T01:30:11.990Z,17.70
2023-04-09T01:35:15.756Z,18.87
2023-04-09T01:40:19.216Z,18.40
2023-04-09T01:45:24.265Z,17.80
2023-04-09T01:50:28.195Z,18.77
2023-04-09T01:55:31.204Z,17.93
2023-04-09T02:00:39.397Z,17.97
2023-04-09T02:05:47.877Z,18.47
2023-04-09T02:10:55.705Z,16.23
2023-04-09T02:16:01.492Z,17.00
2023-04-09T02:21:05.881Z,18.87
2023-04-09T02:26:08.838Z,17.33
2023-04-09T02:31:13.168Z,18.67
2023-04-09T02:36:16.219Z,18.37
2023-04-09T02:41:19.184Z,18.33
2023-04-09T02:46:23.521Z,16.87
2023-04-09T02:51:27.402Z,19.27
2023-04-09T02:56:30.415Z,17.93
2023-04-09T03:01:35.232Z,17.40
2023-04-09T03:06:38.311Z,18.80
2023-04-09T03:11:41.308Z,18.37
2023-04-09T03:16:48.839Z,17.57
2023-04-09T03:21:52.034Z,17.40
2023-04-09T03:27:00.129Z,19.23
2023-04-09T03:32:05.574Z,19.27
2023-04-09T03:37:11.006Z,18.23
2023-04-09T03:42:14.502Z,17.83
2023-04-09T03:47:24.397Z,18.47
2023-04-09T03:52:28.717Z,18.03
2023-04-09T03:57:37.893Z,19.97
2023-04-09T04:02:48.880Z,20.33
2023-04-09T04:07:53.801Z,19.30
2023-04-09T04:13:03.536Z,18.70
2023-04-09T04:18:23.471Z,19.77
2023-04-09T04:23:29.471Z,20.20
2023-04-09T04:28:47.829Z,18.70
2023-04-09T04:34:04.091Z,20.00
2023-04-09T04:39:10.743Z,20.70
2023-04-09T04:44:29.189Z,19.07
2023-04-09T04:49:45.557Z,19.97
2023-04-09T04:54:49.729Z,20.17
2023-04-09T05:00:00.156Z,21.07
2023-04-09T05:05:05.477Z,20.33
2023-04-09T05:10:14.574Z,22.17
2023-04-09T05:15:19.478Z,21.17
2023-04-09T05:20:24.937Z,20.70
2023-04-09T05:25:42.144Z,22.27
2023-04-09T05:30:52.619Z,25.10
2023-04-09T05:35:57.490Z,25.17
2023-04-09T05:41:00.798Z,26.87
2023-04-09T05:46:04.102Z,27.13
2023-04-09T05:51:09.612Z,26.97
2023-04-09T05:56:16.616Z,27.97
2023-04-09T06:01:38.587Z,31.10
2023-04-09T06:06:43.072Z,32.43
2023-04-09T06:11:46.168Z,31.57
2023-04-09T06:16:49.706Z,33.47
2023-04-09T06:21:54.217Z,36.07
2023-04-09T06:26:57.246Z,38.17
2023-04-09T06:32:00.657Z,37.67
2023-04-09T06:37:05.114Z,37.77
2023-04-09T06:42:08.421Z,35.63
2023-04-09T06:47:24.903Z,34.40
2023-04-09T06:52:29.343Z,35.57
2023-04-09T06:57:32.306Z,38.27
2023-04-09T07:02:35.701Z,38.33
2023-04-09T07:07:40.339Z,36.70
2023-04-09T07:12:43.471Z,39.90
2023-04-09T07:17:46.553Z,31.50
2023-04-09T07:22:51.384Z,23.80
2023-04-09T07:27:54.362Z,22.67
2023-04-09T07:32:59.190Z,22.07
2023-04-09T07:38:03.664Z,21.33
2023-04-09T07:43:07.595Z,21.10
2023-04-09T07:48:10.947Z,20.57
2023-04-09T07:53:15.645Z,20.60
2023-04-09T07:58:18.666Z,21.37
2023-04-09T08:03:22.845Z,19.47
2023-04-09T08:08:27.697Z,19.03
2023-04-09T08:13:31.158Z,20.20
2023-04-09T08:18:34.253Z,19.70
2023-04-09T08:23:38.877Z,20.33
2023-04-09T08:28:42.042Z,21.07
2023-04-09T08:33:45.075Z,19.63
2023-04-09T08:38:49.907Z,20.47
2023-04-09T08:43:58.298Z,21.03
2023-04-09T08:49:02.060Z,22.37
2023-04-09T08:54:06.568Z,21.20
2023-04-09T08:59:10.888Z,22.23
2023-04-09T09:04:13.964Z,23.27
2023-04-09T09:09:19.079Z,23.20
2023-04-09T09:14:22.147Z,25.23
2023-04-09T09:19:33.549Z,23.53
2023-04-09T09:24:49.224Z,22.80
2023-04-09T09:29:53.268Z,22.73
2023-04-09T09:35:02.577Z,22.33
2023-04-09T09:40:09.055Z,23.13
2023-04-09T09:45:19.377Z,23.10
2023-04-09T09:50:25.673Z,22.00
2023-04-09T09:55:32.642Z,23.10
2023-04-09T10:00:38.461Z,23.70
2023-04-09T10:05:43.578Z,20.87
2023-04-09T10:10:48.655Z,21.37
2023-04-09T10:15:53.344Z,22.55
2023-04-09T10:21:01.270Z,20.88
2023-04-09T10:26:08.668Z,20.50
2023-04-09T10:31:12.168Z,20.92
2023-04-09T10:36:15.768Z,20.55
2023-04-09T10:41:26.390Z,21.33
2023-04-09T10:46:36.476Z,21.30
2023-04-09T10:51:40.438Z,22.73
2023-04-09T10:57:13.748Z,22.83
2023-04-09T11:02:50.174Z,21.52
2023-04-09T11:07:59.326Z,22.63
2023-04-09T11:13:07.346Z,21.50
2023-04-09T11:18:12.104Z,20.98
2023-04-09T11:23:19.150Z,20.27
2023-04-09T11:28:24.734Z,20.40
2023-04-09T11:33:33.302Z,18.55
2023-04-09T11:38:39.382Z,18.33
2023-04-09T11:43:44.186Z,17.30
2023-04-09T11:48:48.774Z,16.30
2023-04-09T11:53:52.314Z,15.00
2023-04-09T11:58:56.795Z,16.20
2023-04-09T12:04:00.978Z,16.58
2023-04-09T12:09:04.637Z,17.67
2023-04-09T12:14:15.271Z,17.92
2023-04-09T12:19:19.345Z,15.88
2023-04-09T12:24:25.967Z,15.27
2023-04-09T12:29:30.664Z,14.70
2023-04-09T12:34:33.717Z,14.48
2023-04-09T12:39:36.892Z,14.25
2023-04-09T12:44:41.720Z,13.85
2023-04-09T12:49:46.807Z,14.95
2023-04-09T12:54:52.269Z,14.75
2023-04-09T12:59:58.997Z,14.25
2023-04-09T13:05:02.255Z,13.05
2023-04-09T13:10:06.178Z,13.40
2023-04-09T13:15:11.943Z,12.98
2023-04-09T13:20:18.150Z,13.38
2023-04-09T13:25:21.381Z,13.05
2023-04-09T13:30:25.818Z,13.25
2023-04-09T13:35:28.935Z,12.77
2023-04-09T13:40:32.102Z,11.45
2023-04-09T13:45:37.544Z,11.75
2023-04-09T13:50:40.910Z,11.65
2023-04-09T13:55:45.598Z,12.05
2023-04-09T14:00:51.681Z,11.88
2023-04-09T14:05:54.690Z,12.07
2023-04-09T14:10:57.962Z,10.77
2023-04-09T14:16:02.641Z,10.55
2023-04-09T14:21:08.657Z,10.73
2023-04-09T14:26:13.131Z,9.48
2023-04-09T14:31:22.896Z,10.18
2023-04-09T14:36:27.370Z,10.77
2023-04-09T14:41:30.522Z,11.10
2023-04-09T14:46:35.637Z,10.30
2023-04-09T14:51:39.001Z,10.25
2023-04-09T14:56:42.363Z,10.68
2023-04-09T15:01:47.631Z,10.68
2023-04-09T15:06:52.250Z,9.65
2023-04-09T15:11:59.810Z,10.60
2023-04-09T15:17:04.875Z,10.07
2023-04-09T15:22:08.038Z,10.38
2023-04-09T15:27:12.109Z,9.95
2023-04-09T15:32:16.747Z,9.50
2023-04-09T15:37:19.936Z,9.38
2023-04-09T15:42:24.931Z,9.35
2023-04-09T15:47:31.911Z,9.15
2023-04-09T15:52:36.450Z,8.55
2023-04-09T15:57:52.749Z,9.10
2023-04-09T16:03:02.291Z,8.52
2023-04-09T16:08:06.342Z,9.13
2023-04-09T16:13:09.567Z,8.02
2023-04-09T16:18:14.044Z,7.70
2023-04-09T16:23:20.188Z,8.40
2023-04-09T16:28:23.234Z,8.43
2023-04-09T16:33:27.621Z,8.50
2023-04-09T16:38:31.355Z,8.73
2023-04-09T16:43:37.008Z,8.30
2023-04-09T16:48:41.985Z,8.52
2023-04-09T16:53:45.104Z,8.07
2023-04-09T16:58:49.967Z,8.02
2023-04-09T17:03:54.609Z,8.23
2023-04-09T17:08:57.928Z,8.50
2023-04-09T17:14:01.244Z,7.88
2023-04-09T17:19:05.893Z,8.30
2023-04-09T17:24:08.987Z,7.93
2023-04-09T17:29:12.383Z,7.72
2023-04-09T17:34:20.924Z,8.73
2023-04-09T17:39:29.236Z,7.75
2023-04-09T17:44:35.432Z,8.95
2023-04-09T17:49:40.372Z,8.18
2023-04-09T17:54:45.393Z,8.30
2023-04-09T17:59:49.065Z,9.27
2023-04-09T18:04:53.944Z,8.43
2023-04-09T18:09:57.207Z,8.80
2023-04-09T18:15:00.220Z,7.95
2023-04-09T18:20:04.887Z,8.90
2023-04-09T18:25:08.752Z,8.10
2023-04-09T18:30:12.363Z,7.40
2023-04-09T18:35:17.442Z,7.37
2023-04-09T18:40:20.732Z,7.17
2023-04-09T18:45:24.080Z,7.33
2023-04-09T18:50:28.712Z,7.13
2023-04-09T18:55:31.896Z,6.87
2023-04-09T19:00:35.126Z,6.90
2023-04-09T19:05:39.765Z,6.43
2023-04-09T19:10:42.782Z,7.20
2023-04-09T19:15:46.065Z,6.80
2023-04-09T19:20:51.031Z,6.77
2023-04-09T19:25:55.398Z,6.60
2023-04-09T19:31:02.710Z,7.23
2023-04-09T19:36:08.733Z,6.97
2023-04-09T19:41:11.844Z,7.10
2023-04-09T19:46:14.890Z,7.40
2023-04-09T19:51:20.186Z,6.97
2023-04-09T19:56:23.342Z,7.73
2023-04-09T20:01:26.737Z,7.43
2023-04-09T20:06:31.801Z,7.43
2023-04-09T20:11:35.539Z,7.37
2023-04-09T20:16:40.883Z,7.90
2023-04-09T20:21:45.286Z,7.13
2023-04-09T20:26:48.815Z,7.97
2023-04-09T20:31:52.004Z,7.40
2023-04-09T20:36:56.835Z,8.67
2023-04-09T20:42:00.380Z,7.93
2023-04-09T20:47:03.516Z,8.33
2023-04-09T20:52:09.546Z,8.80
2023-04-09T20:57:14.060Z,8.37
2023-04-09T21:02:18.054Z,8.27
2023-04-09T21:07:22.939Z,8.93
2023-04-09T21:12:28.028Z,8.60
2023-04-09T21:17:32.945Z,10.07
2023-04-09T21:22:37.465Z,9.63
2023-04-09T21:27:40.988Z,9.40
2023-04-09T21:32:44.011Z,9.17
2023-04-09T21:37:48.713Z,9.60
2023-04-09T21:42:52.489Z,9.67
2023-04-09T21:47:55.821Z,10.10
2023-04-09T21:53:00.714Z,10.07
2023-04-09T21:58:04.021Z,10.10
2023-04-09T22:03:07.336Z,10.23
2023-04-09T22:08:13.250Z,9.27
2023-04-09T22:13:16.595Z,9.47
2023-04-09T22:18:19.676Z,9.73
2023-04-09T22:23:24.148Z,9.47
2023-04-09T22:28:27.793Z,9.33
2023-04-09T22:33:30.872Z,9.37
2023-04-09T22:38:36.132Z,9.03
2023-04-09T22:43:39.093Z,8.97
2023-04-09T22:48:44.887Z,8.57
2023-04-09T22:53:52.014Z,8.63
2023-04-09T22:58:55.217Z,8.37
2023-04-09T23:03:58.569Z,8.30
2023-04-09T23:09:03.238Z,8.70
2023-04-09T23:14:06.539Z,8.40
2023-04-09T23:19:09.631Z,9.13
2023-04-09T23:24:14.050Z,9.67
2023-04-09T23:29:17.123Z,9.43
2023-04-09T23:34:20.399Z,9.00
2023-04-09T23:39:25.146Z,8.53
2023-04-09T23:44:28.562Z,8.90
2023-04-09T23:49:31.744Z,8.97
2023-04-09T23:54:36.290Z,8.83
2023-04-09T23:59:39.315Z,8.53
